createdAt,value
2022-09-30T00:02:01.442Z,100496.19
2022-09-30T00:04:30.636Z,100494.69
2022-09-30T00:06:59.883Z,100488.38
2022-09-30T00:09:29.106Z,100487.94
2022-09-30T00:11:58.492Z,100488.38
2022-09-30T00:14:27.678Z,100487.25
2022-09-30T00:16:56.791Z,100487.06
2022-09-30T00:19:27.443Z,100469.16
2022-09-30T00:21:56.614Z,100480.75
2022-09-30T00:24:25.790Z,100468.63
2022-09-30T00:26:55.077Z,100458.53
2022-09-30T00:29:24.213Z,100463.69
2022-09-30T00:31:53.510Z,100454.53
2022-09-30T00:34:22.775Z,100454.88
2022-09-30T00:36:55.674Z,100451.97
2022-09-30T00:39:28.054Z,100442.25
2022-09-30T00:42:01.122Z,100459.34
2022-09-30T00:44:54.277Z,100443.09
2022-09-30T00:47:43.733Z,100433.47
2022-09-30T00:50:36.375Z,100430.41
2022-09-30T00:53:15.450Z,100424.09
2022-09-30T00:55:52.870Z,100416.06
2022-09-30T00:58:29.455Z,100427.41
2022-09-30T01:01:01.832Z,100425.81
2022-09-30T01:03:34.907Z,100414.81
2022-09-30T01:06:04.495Z,100410.09
2022-09-30T01:08:39.324Z,100392.00
2022-09-30T01:11:08.591Z,100386.97
2022-09-30T01:13:40.987Z,100381.16
2022-09-30T01:16:43.980Z,100371.84
2022-09-30T01:19:43.672Z,100364.75
2022-09-30T01:22:33.186Z,100372.19
2022-09-30T01:25:56.709Z,100366.00
2022-09-30T01:28:47.692Z,100333.69
2022-09-30T01:31:40.436Z,100348.47
2022-09-30T01:34:19.455Z,100362.34
2022-09-30T01:37:08.125Z,100356.63
2022-09-30T01:39:50.529Z,100351.13
2022-09-30T01:42:29.149Z,100321.78
2022-09-30T01:45:08.463Z,100327.13
2022-09-30T01:47:48.468Z,100333.94
2022-09-30T01:50:23.303Z,100312.75
2022-09-30T01:53:02.215Z,100308.84
2022-09-30T01:55:37.374Z,100307.34
2022-09-30T01:58:16.064Z,100307.69
2022-09-30T02:00:52.326Z,100321.44
2022-09-30T02:03:29.074Z,100315.94
2022-09-30T02:06:03.817Z,100301.41
2022-09-30T02:08:41.524Z,100275.41
2022-09-30T02:11:16.448Z,100277.66
2022-09-30T02:13:52.139Z,100275.88
2022-09-30T02:16:29.721Z,100266.91
2022-09-30T02:19:10.382Z,100268.28
2022-09-30T02:21:44.989Z,100252.25
2022-09-30T02:24:18.905Z,100248.47
2022-09-30T02:26:51.049Z,100243.53
2022-09-30T02:29:25.057Z,100222.00
2022-09-30T02:31:59.367Z,100222.00
2022-09-30T02:34:33.997Z,100210.19
2022-09-30T02:37:10.291Z,100209.69
2022-09-30T02:39:45.095Z,100206.28
2022-09-30T02:42:20.493Z,100186.91
2022-09-30T02:44:52.396Z,100180.81
2022-09-30T02:47:32.636Z,100158.00
2022-09-30T02:50:13.721Z,100141.50
2022-09-30T02:52:56.961Z,100142.59
2022-09-30T02:55:35.163Z,100153.59
2022-09-30T02:58:13.292Z,100156.63
2022-09-30T03:00:42.616Z,100149.75
2022-09-30T03:03:20.654Z,100135.41
2022-09-30T03:05:52.930Z,100148.91
2022-09-30T03:08:22.429Z,100141.13
2022-09-30T03:10:53.519Z,100127.03
2022-09-30T03:14:10.842Z,100127.09
2022-09-30T03:17:09.670Z,100112.44
2022-09-30T03:19:56.493Z,100116.94
2022-09-30T03:23:08.988Z,100114.19
2022-09-30T03:25:49.445Z,100096.78
2022-09-30T03:28:28.058Z,100107.09
2022-09-30T03:31:07.265Z,100079.59
2022-09-30T03:33:50.538Z,100070.88
2022-09-30T03:36:29.819Z,100063.69
2022-09-30T03:39:07.594Z,100057.41
2022-09-30T03:41:43.558Z,100054.28
2022-09-30T03:44:22.291Z,100059.06
2022-09-30T03:46:57.734Z,100049.16
2022-09-30T03:49:33.316Z,100048.38
2022-09-30T03:52:07.325Z,100061.75
2022-09-30T03:54:48.583Z,100017.13
2022-09-30T03:57:17.888Z,100022.09
2022-09-30T03:59:47.059Z,100005.84
2022-09-30T04:02:16.448Z,100005.22
2022-09-30T04:04:45.600Z,99997.97
2022-09-30T04:07:14.774Z,99988.72
2022-09-30T04:09:45.373Z,99980.91
2022-09-30T04:12:14.607Z,99978.09
2022-09-30T04:14:43.921Z,99959.19
2022-09-30T04:17:13.056Z,99957.50
2022-09-30T04:19:42.269Z,99971.69
2022-09-30T04:22:11.760Z,99972.47
2022-09-30T04:24:40.880Z,99957.06
2022-09-30T04:27:11.524Z,99955.16
2022-09-30T04:29:40.670Z,99963.94
2022-09-30T04:32:09.794Z,99944.09
2022-09-30T04:34:39.000Z,99933.81
2022-09-30T04:37:10.955Z,99933.09
2022-09-30T04:39:40.917Z,99931.38
2022-09-30T04:42:11.479Z,99926.53
2022-09-30T04:44:40.660Z,99904.78
2022-09-30T04:47:09.885Z,99878.78
2022-09-30T04:49:39.159Z,99880.44
2022-09-30T04:52:08.390Z,99870.06
2022-09-30T04:54:37.497Z,99869.75
2022-09-30T04:57:06.632Z,99871.84
2022-09-30T04:59:37.337Z,99855.34
2022-09-30T05:02:06.749Z,99840.56
2022-09-30T05:04:36.008Z,99824.34
2022-09-30T05:07:08.940Z,99828.78
2022-09-30T05:09:38.549Z,99824.91
2022-09-30T05:12:08.346Z,99801.16
2022-09-30T05:14:38.977Z,99797.78
2022-09-30T05:17:08.810Z,99791.47
2022-09-30T05:19:37.900Z,99776.56
2022-09-30T05:22:07.086Z,99760.13
2022-09-30T05:24:36.242Z,99754.28
2022-09-30T05:27:05.472Z,99743.72
2022-09-30T05:29:34.675Z,99727.44
2022-09-30T05:32:05.801Z,99724.91
2022-09-30T05:34:35.034Z,99714.84
2022-09-30T05:37:04.350Z,99720.88
2022-09-30T05:39:33.483Z,99723.69
2022-09-30T05:42:02.653Z,99725.78
2022-09-30T05:44:31.812Z,99713.19
2022-09-30T05:47:01.183Z,99705.78
2022-09-30T05:49:35.075Z,99667.97
2022-09-30T05:52:04.275Z,99657.75
2022-09-30T05:54:33.443Z,99650.63
2022-09-30T05:57:02.669Z,99660.19
2022-09-30T05:59:31.937Z,99631.56
2022-09-30T06:02:01.766Z,99632.44
2022-09-30T06:04:32.498Z,99619.59
2022-09-30T06:07:01.742Z,99606.53
2022-09-30T06:09:30.982Z,99597.19
2022-09-30T06:12:00.396Z,99573.22
2022-09-30T06:14:29.518Z,99547.53
2022-09-30T06:17:00.539Z,99532.97
2022-09-30T06:19:31.178Z,99514.56
2022-09-30T06:22:01.514Z,99538.97
2022-09-30T06:24:31.136Z,99519.72
2022-09-30T06:27:00.468Z,99507.41
2022-09-30T06:29:29.611Z,99535.00
2022-09-30T06:31:58.739Z,99534.16
2022-09-30T06:34:27.937Z,99534.53
2022-09-30T06:36:58.492Z,99522.16
2022-09-30T06:39:28.298Z,99510.44
2022-09-30T06:41:57.446Z,99510.72
2022-09-30T06:44:29.452Z,99506.25
2022-09-30T06:46:59.974Z,99492.34
2022-09-30T06:49:37.812Z,99469.31
2022-09-30T06:52:14.231Z,99476.78
2022-09-30T06:54:43.764Z,99461.13
2022-09-30T06:57:12.895Z,99453.69
2022-09-30T06:59:42.914Z,99444.75
2022-09-30T07:02:13.553Z,99445.84
2022-09-30T07:04:43.002Z,99429.81
2022-09-30T07:07:13.823Z,99434.63
2022-09-30T07:09:43.912Z,99451.94
2022-09-30T07:12:13.104Z,99434.56
2022-09-30T07:14:42.355Z,99426.69
2022-09-30T07:17:11.542Z,99414.50
2022-09-30T07:19:40.917Z,99401.44
2022-09-30T07:22:27.563Z,99383.84
2022-09-30T07:24:59.138Z,99377.03
2022-09-30T07:27:31.550Z,99364.22
2022-09-30T07:30:13.341Z,99353.75
2022-09-30T07:32:47.586Z,99337.91
2022-09-30T07:35:16.873Z,99334.47
2022-09-30T07:37:46.216Z,99357.22
2022-09-30T07:40:17.004Z,99353.75
2022-09-30T07:42:46.658Z,99347.44
2022-09-30T07:45:17.206Z,99329.78
2022-09-30T07:47:51.000Z,99322.38
2022-09-30T07:50:22.723Z,99307.44
2022-09-30T07:52:54.090Z,99285.88
2022-09-30T07:55:25.049Z,99269.91
2022-09-30T07:57:54.241Z,99252.53
2022-09-30T08:00:41.497Z,99262.06
2022-09-30T08:03:11.919Z,99267.84
2022-09-30T08:05:41.900Z,99248.97
2022-09-30T08:08:11.137Z,99210.81
2022-09-30T08:10:41.766Z,99161.81
2022-09-30T08:13:13.921Z,99189.09
2022-09-30T08:15:43.284Z,99174.22
2022-09-30T08:18:12.604Z,99159.00
2022-09-30T08:20:41.932Z,99128.25
2022-09-30T08:23:11.102Z,99130.25
2022-09-30T08:25:41.721Z,99107.03
2022-09-30T08:28:12.255Z,99111.75
2022-09-30T08:30:41.998Z,99118.78
2022-09-30T08:33:11.326Z,99101.47
2022-09-30T08:35:40.514Z,99068.47
2022-09-30T08:38:09.672Z,99084.66
2022-09-30T08:40:56.757Z,99069.25
2022-09-30T08:43:37.990Z,99031.50
2022-09-30T08:46:18.715Z,99023.59
2022-09-30T08:49:04.022Z,99013.38
2022-09-30T08:51:38.272Z,99010.66
2022-09-30T08:54:13.826Z,98982.69
2022-09-30T08:56:45.817Z,98945.28
2022-09-30T08:59:28.820Z,98951.66
2022-09-30T09:02:03.131Z,98958.31
2022-09-30T09:04:32.556Z,98954.00
2022-09-30T09:07:11.755Z,98930.00
2022-09-30T09:09:57.698Z,98935.53
2022-09-30T09:12:38.754Z,98927.69
2022-09-30T09:15:28.138Z,98892.25
2022-09-30T09:18:36.196Z,98898.16
2022-09-30T09:21:21.534Z,98900.59
2022-09-30T09:23:54.227Z,98889.16
2022-09-30T09:26:24.438Z,98891.50
2022-09-30T09:29:20.187Z,98908.84
2022-09-30T09:31:49.490Z,98962.44
2022-09-30T09:34:18.744Z,98952.22
2022-09-30T09:37:00.842Z,98933.69
2022-09-30T09:40:03.581Z,98901.38
2022-09-30T09:42:55.553Z,98912.00
2022-09-30T09:45:36.076Z,98891.13
2022-09-30T09:48:12.100Z,98909.63
2022-09-30T09:50:54.657Z,98889.94
2022-09-30T09:53:49.492Z,98879.69
2022-09-30T09:56:21.958Z,98869.44
2022-09-30T09:59:09.780Z,98880.47
2022-09-30T10:01:43.445Z,98870.59
2022-09-30T10:04:22.116Z,98852.06
2022-09-30T10:06:57.900Z,98853.69
2022-09-30T10:09:33.457Z,98868.22
2022-09-30T10:12:29.368Z,98861.94
2022-09-30T10:15:20.924Z,98850.91
2022-09-30T10:17:57.681Z,98838.69
2022-09-30T10:20:33.541Z,98843.00
2022-09-30T10:23:10.782Z,98849.72
2022-09-30T10:25:39.963Z,98812.25
2022-09-30T10:28:25.283Z,98791.78
2022-09-30T10:30:59.805Z,98807.13
2022-09-30T10:33:37.266Z,98837.91
2022-09-30T10:36:15.358Z,98783.06
2022-09-30T10:39:02.578Z,98785.78
2022-09-30T10:41:38.433Z,98792.88
2022-09-30T10:44:16.909Z,98797.56
2022-09-30T10:46:49.141Z,98766.78
2022-09-30T10:49:33.199Z,98761.69
2022-09-30T10:52:04.294Z,98779.75
2022-09-30T10:54:50.182Z,98745.97
2022-09-30T10:57:24.900Z,98765.28
2022-09-30T11:00:01.186Z,98762.81
2022-09-30T11:02:38.109Z,98738.41
2022-09-30T11:05:18.231Z,98787.22
2022-09-30T11:07:54.822Z,98746.13
2022-09-30T11:10:36.068Z,98754.81
2022-09-30T11:13:14.963Z,98775.38
2022-09-30T11:15:54.922Z,98759.59
2022-09-30T11:18:32.075Z,98761.47
2022-09-30T11:21:07.937Z,98760.31
2022-09-30T11:23:42.343Z,98748.41
2022-09-30T11:26:20.573Z,98730.16
2022-09-30T11:29:07.277Z,98743.88
2022-09-30T11:31:42.156Z,98715.44
2022-09-30T11:34:30.026Z,98733.13
2022-09-30T11:37:16.438Z,98705.59
2022-09-30T11:40:16.134Z,98708.66
2022-09-30T11:42:54.737Z,98742.16
2022-09-30T11:45:36.775Z,98732.34
2022-09-30T11:48:32.542Z,98724.00
2022-09-30T11:51:17.110Z,98764.69
2022-09-30T11:54:02.219Z,98755.25
2022-09-30T11:56:48.370Z,98752.44
2022-09-30T11:59:25.239Z,98750.25
2022-09-30T12:02:02.522Z,98756.44
2022-09-30T12:04:39.484Z,98733.59
2022-09-30T12:07:17.867Z,98746.53
2022-09-30T12:09:55.058Z,98751.34
2022-09-30T12:12:24.485Z,98775.44
2022-09-30T12:14:58.366Z,98756.13
2022-09-30T12:17:33.387Z,98741.94
2022-09-30T12:20:16.918Z,98742.91
2022-09-30T12:22:49.435Z,98799.63
2022-09-30T12:25:26.267Z,98812.16
2022-09-30T12:28:01.832Z,98822.03
2022-09-30T12:30:31.035Z,98822.03
2022-09-30T12:33:48.845Z,98835.44
2022-09-30T12:36:57.643Z,98841.00
2022-09-30T12:40:20.043Z,98850.47
2022-09-30T12:43:41.291Z,98880.09
2022-09-30T12:46:31.761Z,98871.84
2022-09-30T12:49:06.156Z,98891.91
2022-09-30T12:51:39.179Z,98897.84
2022-09-30T12:54:18.884Z,98893.16
2022-09-30T12:56:54.915Z,98905.41
2022-09-30T12:59:31.596Z,98889.50
2022-09-30T13:02:04.505Z,98911.28
2022-09-30T13:04:37.901Z,98909.47
2022-09-30T13:07:20.391Z,98910.03
2022-09-30T13:10:03.169Z,98901.88
2022-09-30T13:12:44.153Z,98903.38
2022-09-30T13:15:43.617Z,98889.44
2022-09-30T13:18:59.662Z,98894.72
2022-09-30T13:21:32.039Z,98889.53
2022-09-30T13:24:01.906Z,98903.25
2022-09-30T13:26:48.643Z,98913.59
2022-09-30T13:29:50.869Z,98913.22
2022-09-30T13:32:37.475Z,98914.94
2022-09-30T13:35:33.218Z,98924.78
2022-09-30T13:38:36.511Z,98928.66
2022-09-30T13:41:17.701Z,98923.91
2022-09-30T13:44:03.358Z,98921.44
2022-09-30T13:46:43.165Z,98940.53
2022-09-30T13:49:22.731Z,98941.53
2022-09-30T13:51:52.871Z,98935.28
2022-09-30T13:54:31.151Z,98952.03
2022-09-30T13:57:02.424Z,98942.41
2022-09-30T13:59:49.302Z,98953.09
2022-09-30T14:03:03.974Z,98953.97
2022-09-30T14:05:55.713Z,98952.31
2022-09-30T14:08:55.045Z,98946.38
2022-09-30T14:11:56.792Z,98965.97
2022-09-30T14:15:09.785Z,98950.22
2022-09-30T14:18:00.662Z,98956.56
2022-09-30T14:20:52.877Z,98956.25
2022-09-30T14:23:22.633Z,98968.78
2022-09-30T14:26:01.207Z,98959.06
2022-09-30T14:28:37.913Z,98969.19
2022-09-30T14:31:10.320Z,98961.81
2022-09-30T14:33:39.880Z,98973.97
2022-09-30T14:36:16.968Z,98958.69
2022-09-30T14:38:49.254Z,98977.22
2022-09-30T14:41:22.549Z,98980.28
2022-09-30T14:43:56.698Z,98968.88
2022-09-30T14:46:35.138Z,98975.19
2022-09-30T14:49:08.501Z,98974.34
2022-09-30T14:51:43.715Z,98977.94
2022-09-30T14:54:19.810Z,98969.00
2022-09-30T14:56:51.103Z,98957.84
2022-09-30T14:59:24.916Z,98973.16
2022-09-30T15:02:00.751Z,98960.22
2022-09-30T15:04:34.224Z,98984.13
2022-09-30T15:07:11.064Z,98975.88
2022-09-30T15:09:43.788Z,98979.38
2022-09-30T15:12:16.194Z,98981.19
2022-09-30T15:14:50.025Z,98983.09
2022-09-30T15:17:21.598Z,98952.81
2022-09-30T15:19:51.373Z,98972.91
2022-09-30T15:22:24.161Z,98983.94
2022-09-30T15:24:54.478Z,98973.13
2022-09-30T15:27:28.336Z,98978.81
2022-09-30T15:29:58.459Z,98974.88
2022-09-30T15:32:30.496Z,98978.50
2022-09-30T15:35:05.543Z,98984.56
2022-09-30T15:37:36.442Z,98991.72
2022-09-30T15:40:33.876Z,98982.53
2022-09-30T15:43:07.032Z,98984.38
2022-09-30T15:45:39.608Z,98994.44
2022-09-30T15:48:29.265Z,99011.72
2022-09-30T15:51:01.534Z,99014.63
2022-09-30T15:53:47.208Z,99026.81
2022-09-30T15:56:24.643Z,99016.66
2022-09-30T15:58:58.266Z,99006.47
2022-09-30T16:01:34.377Z,99001.75
2022-09-30T16:04:10.204Z,99003.38
2022-09-30T16:06:48.531Z,99006.25
2022-09-30T16:09:29.255Z,99018.91
2022-09-30T16:12:05.501Z,99024.03
2022-09-30T16:14:44.925Z,99033.59
2022-09-30T16:17:21.413Z,99016.94
2022-09-30T16:19:55.936Z,99026.38
2022-09-30T16:22:54.956Z,99029.19
2022-09-30T16:25:30.809Z,99015.53
2022-09-30T16:28:02.684Z,99014.06
2022-09-30T16:30:33.367Z,99023.47
2022-09-30T16:33:07.592Z,99029.78
2022-09-30T16:35:36.812Z,99038.97
2022-09-30T16:38:08.951Z,99003.56
2022-09-30T16:40:40.230Z,99019.69
2022-09-30T16:43:11.017Z,99033.13
2022-09-30T16:45:41.690Z,99039.50
2022-09-30T16:48:17.360Z,99048.63
2022-09-30T16:50:51.688Z,99041.91
2022-09-30T16:53:20.849Z,99030.03
2022-09-30T16:55:52.339Z,99041.94
2022-09-30T16:58:21.483Z,99032.13
2022-09-30T17:00:50.805Z,99019.88
2022-09-30T17:03:21.715Z,99033.72
2022-09-30T17:05:53.304Z,99035.69
2022-09-30T17:08:24.313Z,99016.00
2022-09-30T17:10:56.262Z,99050.38
2022-09-30T17:13:26.926Z,99036.19
2022-09-30T17:15:57.899Z,99057.47
2022-09-30T17:18:27.121Z,99047.63
2022-09-30T17:20:56.689Z,99053.97
2022-09-30T17:23:26.953Z,99052.75
2022-09-30T17:25:58.127Z,99046.84
2022-09-30T17:28:27.375Z,99048.44
2022-09-30T17:30:56.965Z,99031.88
2022-09-30T17:33:26.308Z,99065.38
2022-09-30T17:36:00.691Z,99059.84
2022-09-30T17:38:30.783Z,99064.59
2022-09-30T17:41:19.926Z,99076.06
2022-09-30T17:43:49.545Z,99066.56
2022-09-30T17:46:23.425Z,99077.22
2022-09-30T17:48:57.847Z,99079.94
2022-09-30T17:51:27.023Z,99091.78
2022-09-30T17:53:57.091Z,99109.94
2022-09-30T17:56:29.221Z,99119.38
2022-09-30T17:59:01.994Z,99107.09
2022-09-30T18:01:32.221Z,99094.50
2022-09-30T18:04:02.100Z,99115.44
2022-09-30T18:06:32.292Z,99119.75
2022-09-30T18:09:01.583Z,99101.19
2022-09-30T18:11:32.417Z,99131.13
2022-09-30T18:14:02.304Z,99119.66
2022-09-30T18:16:33.935Z,99120.84
2022-09-30T18:19:05.701Z,99142.97
2022-09-30T18:21:37.258Z,99134.13
2022-09-30T18:24:07.893Z,99140.91
2022-09-30T18:26:38.559Z,99133.06
2022-09-30T18:29:08.120Z,99128.72
2022-09-30T18:31:38.821Z,99136.63
2022-09-30T18:34:08.453Z,99140.56
2022-09-30T18:36:38.023Z,99145.66
2022-09-30T18:39:07.440Z,99148.44
2022-09-30T18:41:44.516Z,99147.97
2022-09-30T18:44:14.556Z,99144.84
2022-09-30T18:46:44.210Z,99155.47
2022-09-30T18:49:13.745Z,99145.94
2022-09-30T18:51:42.986Z,99140.44
2022-09-30T18:54:13.388Z,99145.16
2022-09-30T18:56:45.040Z,99135.72
2022-09-30T18:59:18.310Z,99136.03
2022-09-30T19:01:50.497Z,99140.41
2022-09-30T19:04:19.809Z,99130.09
2022-09-30T19:06:50.023Z,99131.25
2022-09-30T19:09:19.256Z,99116.25
2022-09-30T19:11:51.567Z,99129.19
2022-09-30T19:14:20.969Z,99106.25
2022-09-30T19:16:51.349Z,99127.16
2022-09-30T19:19:22.885Z,99135.84
2022-09-30T19:21:52.246Z,99118.50
2022-09-30T19:24:25.373Z,99129.56
2022-09-30T19:26:58.058Z,99141.66
2022-09-30T19:29:27.371Z,99117.66
2022-09-30T19:31:57.548Z,99139.63
2022-09-30T19:34:32.235Z,99119.50
2022-09-30T19:37:02.048Z,99120.75
2022-09-30T19:39:42.079Z,99137.66
2022-09-30T19:42:18.392Z,99128.63
2022-09-30T19:44:47.558Z,99147.78
2022-09-30T19:47:17.071Z,99150.97
2022-09-30T19:49:46.594Z,99159.53
2022-09-30T19:52:21.902Z,99150.13
2022-09-30T19:54:55.865Z,99150.06
2022-09-30T19:57:28.228Z,99170.50
2022-09-30T20:00:00.367Z,99167.00
2022-09-30T20:02:40.515Z,99141.56
2022-09-30T20:05:11.564Z,99173.50
2022-09-30T20:07:40.857Z,99169.69
2022-09-30T20:10:10.885Z,99167.38
2022-09-30T20:12:42.779Z,99167.41
2022-09-30T20:15:29.827Z,99169.75
2022-09-30T20:17:59.065Z,99145.19
2022-09-30T20:20:44.864Z,99165.75
2022-09-30T20:23:14.769Z,99177.13
2022-09-30T20:25:44.079Z,99163.31
2022-09-30T20:28:14.722Z,99177.44
2022-09-30T20:30:45.695Z,99167.19
2022-09-30T20:33:17.726Z,99179.81
2022-09-30T20:35:47.506Z,99179.91
2022-09-30T20:38:19.305Z,99175.78
2022-09-30T20:40:48.460Z,99201.22
2022-09-30T20:43:19.719Z,99207.44
2022-09-30T20:45:55.538Z,99212.63
2022-09-30T20:48:24.807Z,99213.81
2022-09-30T20:50:53.998Z,99209.53
2022-09-30T20:53:24.189Z,99221.72
2022-09-30T20:55:53.348Z,99214.94
2022-09-30T20:58:24.035Z,99218.47
2022-09-30T21:00:53.248Z,99222.28
2022-09-30T21:03:23.258Z,99223.97
2022-09-30T21:05:55.489Z,99212.94
2022-09-30T21:08:24.912Z,99202.09
2022-09-30T21:10:54.046Z,99226.94
2022-09-30T21:13:24.690Z,99239.41
2022-09-30T21:16:01.978Z,99236.25
2022-09-30T21:18:31.735Z,99248.84
2022-09-30T21:21:03.398Z,99281.09
2022-09-30T21:23:35.373Z,99246.84
2022-09-30T21:26:06.872Z,99260.56
2022-09-30T21:28:38.397Z,99253.16
2022-09-30T21:31:14.216Z,99271.03
2022-09-30T21:33:44.835Z,99272.34
2022-09-30T21:36:14.150Z,99276.44
2022-09-30T21:38:43.384Z,99281.56
2022-09-30T21:41:12.540Z,99287.34
2022-09-30T21:43:43.901Z,99276.28
2022-09-30T21:46:15.415Z,99285.63
2022-09-30T21:48:45.603Z,99299.75
2022-09-30T21:51:15.034Z,99274.09
2022-09-30T21:53:44.261Z,99297.75
2022-09-30T21:56:13.912Z,99310.38
2022-09-30T21:58:44.584Z,99311.44
2022-09-30T22:01:14.089Z,99305.84
2022-09-30T22:03:43.573Z,99303.88
2022-09-30T22:06:13.414Z,99308.19
2022-09-30T22:08:42.748Z,99313.38
2022-09-30T22:11:15.567Z,99307.28
2022-09-30T22:13:47.377Z,99304.22
2022-09-30T22:16:19.942Z,99307.25
2022-09-30T22:18:48.980Z,99298.63
2022-09-30T22:21:18.089Z,99296.19
2022-09-30T22:23:49.109Z,99312.97
2022-09-30T22:26:21.509Z,99295.94
2022-09-30T22:28:57.009Z,99301.03
2022-09-30T22:31:28.514Z,99322.66
2022-09-30T22:34:19.123Z,99307.44
2022-09-30T22:37:06.278Z,99324.38
2022-09-30T22:39:36.613Z,99328.28
2022-09-30T22:42:07.449Z,99331.31
2022-09-30T22:44:39.403Z,99328.63
2022-09-30T22:47:10.999Z,99329.69
2022-09-30T22:49:40.155Z,99340.34
2022-09-30T22:52:10.026Z,99319.47
2022-09-30T22:54:39.177Z,99338.78
2022-09-30T22:57:09.198Z,99339.94
2022-09-30T22:59:41.820Z,99345.81
2022-09-30T23:02:10.850Z,99305.88
2022-09-30T23:04:40.041Z,99345.06
2022-09-30T23:07:09.244Z,99358.13
2022-09-30T23:09:38.353Z,99343.22
2022-09-30T23:12:07.488Z,99356.53
2022-09-30T23:14:38.917Z,99356.44
2022-09-30T23:17:08.199Z,99346.19
2022-09-30T23:19:37.357Z,99351.47
2022-09-30T23:22:06.763Z,99348.72
2022-09-30T23:24:35.971Z,99358.16
2022-09-30T23:27:05.215Z,99357.72
2022-09-30T23:29:34.362Z,99360.84
2022-09-30T23:32:04.987Z,99355.28
2022-09-30T23:34:34.138Z,99374.31
2022-09-30T23:37:03.253Z,99369.66
2022-09-30T23:39:32.366Z,99373.16
2022-09-30T23:42:01.547Z,99372.28
2022-09-30T23:44:31.114Z,99363.63
2022-09-30T23:47:17.424Z,99387.22
2022-09-30T23:49:48.173Z,99374.59
2022-09-30T23:52:17.952Z,99379.97
2022-09-30T23:54:47.094Z,99380.38
2022-09-30T23:57:16.223Z,99396.03
2022-09-30T23:59:45.369Z,99405.13
